Time;durP1;ratioP1;P1;durP2;ratioP2;P2;SDS_P1;SDS_P2;PMS_P1;PMS_P2;Temp;Humidity;BMP_temperature;BMP_pressure;BME280_temperature;BME280_humidity;BME280_pressure;Samples;Min_cycle;Max_cycle;Signal;HPM_P1;HPM_P2
2023/07/14 00:00:26;;;;;;;10.90;9.85;;;15.20;99.90;;;;;;5049821;28;20084;-49
2023/07/14 00:02:53;;;;;;;14.20;9.95;;;15.20;99.90;;;;;;5049650;28;20536;-50
2023/07/14 00:05:26;;;;;;;12.95;10.95;;;15.20;99.90;;;;;;5050041;28;20060;-49
2023/07/14 00:07:54;;;;;;;12.85;9.35;;;15.20;99.90;;;;;;5049683;28;20041;-49
2023/07/14 00:10:31;;;;;;;11.95;9.68;;;15.20;99.90;;;;;;5050299;28;20045;-49
2023/07/14 00:13:02;;;;;;;15.32;9.55;;;15.20;99.90;;;;;;5050215;28;20045;-49
2023/07/14 00:15:32;;;;;;;12.25;9.90;;;15.20;99.90;;;;;;5050113;28;20066;-49
2023/07/14 00:18:13;;;;;;;9.48;7.53;;;15.20;99.90;;;;;;5050267;28;20397;-49
2023/07/14 00:20:39;;;;;;;11.70;9.32;;;15.10;99.90;;;;;;5049750;28;20124;-48
2023/07/14 00:23:13;;;;;;;11.52;9.70;;;15.10;99.90;;;;;;5049896;28;20171;-50
2023/07/14 00:25:40;;;;;;;11.20;10.05;;;15.00;99.90;;;;;;5049917;28;20112;-51
2023/07/14 00:28:16;;;;;;;14.02;9.75;;;15.00;99.90;;;;;;5049880;28;20037;-49
2023/07/14 00:30:42;;;;;;;10.15;9.15;;;15.10;99.90;;;;;;5049509;28;20437;-51
2023/07/14 00:33:14;;;;;;;8.95;8.07;;;15.10;99.90;;;;;;5048860;28;20045;-49
2023/07/14 00:35:41;;;;;;;11.48;8.10;;;15.10;99.90;;;;;;5030029;28;20084;-50
2023/07/14 00:38:07;;;;;;;12.32;8.20;;;15.10;99.90;;;;;;5047942;28;20037;-49
2023/07/14 00:40:37;;;;;;;16.05;8.63;;;15.10;99.90;;;;;;5049969;28;20037;-49
2023/07/14 00:43:06;;;;;;;17.02;9.35;;;15.00;99.90;;;;;;5049417;28;20430;-49
2023/07/14 00:45:33;;;;;;;13.90;8.07;;;15.00;99.90;;;;;;5049376;28;20067;-49
2023/07/14 00:48:04;;;;;;;14.65;8.27;;;15.00;99.90;;;;;;5050111;28;20112;-49
2023/07/14 00:50:41;;;;;;;11.48;8.50;;;15.00;99.90;;;;;;5054208;28;20087;-49
2023/07/14 00:53:25;;;;;;;10.70;9.15;;;15.00;99.90;;;;;;5053519;28;20037;-49
2023/07/14 00:56:28;;;;;;;11.25;8.88;;;15.00;99.90;;;;;;5053986;28;20045;-49
2023/07/14 00:58:54;;;;;;;11.77;10.25;;;15.00;99.90;;;;;;5054025;28;20426;-53
2023/07/14 01:01:22;;;;;;;13.95;8.75;;;15.00;99.90;;;;;;5054151;28;20037;-49
2023/07/14 01:03:55;;;;;;;10.88;9.38;;;14.90;99.90;;;;;;5053094;28;20072;-50
2023/07/14 01:06:24;;;;;;;10.38;8.73;;;14.90;99.90;;;;;;5053156;28;20087;-49
2023/07/14 01:08:59;;;;;;;8.95;8.10;;;14.90;99.90;;;;;;5053546;28;20033;-52
2023/07/14 01:11:45;;;;;;;14.02;9.07;;;14.90;99.90;;;;;;5054286;28;20045;-51
2023/07/14 01:14:24;;;;;;;11.75;8.85;;;14.90;99.90;;;;;;5052364;28;20041;-49
2023/07/14 01:16:53;;;;;;;11.70;8.85;;;14.90;99.90;;;;;;5053626;28;20409;-54
2023/07/14 01:19:40;;;;;;;10.68;8.98;;;14.90;99.90;;;;;;5049295;28;20489;-49
2023/07/14 01:22:08;;;;;;;13.35;8.52;;;14.90;99.90;;;;;;5053127;28;20044;-49
2023/07/14 01:24:42;;;;;;;11.43;8.88;;;14.80;99.90;;;;;;5052166;28;20049;-51
2023/07/14 01:27:08;;;;;;;9.95;8.93;;;14.80;99.90;;;;;;5051640;28;20083;-52
2023/07/14 01:29:34;;;;;;;9.75;8.43;;;14.80;99.90;;;;;;5053154;28;20130;-52
2023/07/14 01:32:01;;;;;;;10.27;9.27;;;14.80;99.90;;;;;;5053304;28;20513;-52
2023/07/14 01:34:28;;;;;;;11.18;9.38;;;14.80;99.90;;;;;;5052669;28;20041;-49
2023/07/14 01:36:58;;;;;;;10.40;9.25;;;14.80;99.90;;;;;;5053524;28;20063;-49
2023/07/14 01:39:28;;;;;;;12.57;8.77;;;14.80;99.90;;;;;;5052883;28;20044;-50
2023/07/14 01:41:54;;;;;;;11.98;8.82;;;14.80;99.90;;;;;;5051690;28;20057;-49
2023/07/14 01:44:21;;;;;;;16.20;9.32;;;14.80;99.90;;;;;;5052516;28;20399;-49
2023/07/14 01:46:48;;;;;;;17.58;10.35;;;14.80;99.90;;;;;;5053078;28;20040;-49
2023/07/14 01:49:34;;;;;;;10.07;8.88;;;14.80;99.90;;;;;;5052870;28;20055;-50
2023/07/14 01:52:03;;;;;;;10.50;8.75;;;14.70;99.90;;;;;;5053043;28;20060;-49
2023/07/14 01:54:43;;;;;;;12.63;9.15;;;14.70;99.90;;;;;;5052400;28;20068;-53
2023/07/14 01:57:12;;;;;;;11.50;9.23;;;14.70;99.90;;;;;;5053079;28;20079;-49
2023/07/14 01:59:43;;;;;;;12.45;10.98;;;14.60;99.90;;;;;;5052029;28;20037;-49
2023/07/14 02:02:22;;;;;;;10.35;8.98;;;14.60;99.90;;;;;;5053223;28;20094;-51
2023/07/14 02:04:49;;;;;;;10.75;9.40;;;14.60;99.90;;;;;;5051820;28;20580;-48
2023/07/14 02:07:15;;;;;;;14.40;11.20;;;14.60;99.90;;;;;;5051207;28;20041;-53
2023/07/14 02:09:41;;;;;;;;;;;14.60;99.90;;;;;;5053229;28;20059;-53
2023/07/14 02:12:31;;;;;;;12.02;9.35;;;14.60;99.90;;;;;;5052568;28;20397;-50
2023/07/14 02:15:04;;;;;;;14.02;10.15;;;14.60;99.90;;;;;;5051362;28;20105;-48
2023/07/14 02:17:33;;;;;;;13.38;8.70;;;14.60;99.90;;;;;;5052435;28;20551;-50
2023/07/14 02:20:00;;;;;;;12.80;10.48;;;14.60;99.90;;;;;;5051995;28;20128;-49
2023/07/14 02:22:27;;;;;;;10.45;9.40;;;14.60;99.90;;;;;;5052303;28;20040;-50
2023/07/14 02:24:54;;;;;;;;;;;14.60;99.90;;;;;;5052239;28;20398;-50
2023/07/14 02:27:19;;;;;;;11.00;9.90;;;14.60;99.90;;;;;;5052079;28;20396;-52
2023/07/14 02:29:45;;;;;;;15.65;10.48;;;14.60;99.90;;;;;;5052007;28;20064;-49
2023/07/14 02:32:28;;;;;;;15.18;13.02;;;14.60;99.90;;;;;;5051952;28;20039;-54
2023/07/14 02:35:02;;;;;;;13.57;10.27;;;14.60;99.90;;;;;;5051136;28;20067;-49
2023/07/14 02:38:00;;;;;;;15.05;11.07;;;14.50;99.90;;;;;;5052110;28;20053;-49
2023/07/14 02:40:36;;;;;;;12.02;10.75;;;14.50;99.90;;;;;;5051527;28;20128;-49
2023/07/14 02:43:11;;;;;;;12.32;10.77;;;14.60;99.90;;;;;;5051707;28;20033;-52
2023/07/14 02:45:44;;;;;;;12.55;10.68;;;14.60;99.90;;;;;;5051237;28;20056;-49
2023/07/14 02:48:15;;;;;;;12.40;11.15;;;14.60;99.90;;;;;;5031600;28;20083;-50
2023/07/14 02:50:43;;;;;;;12.43;10.10;;;14.60;99.90;;;;;;5049200;28;20047;-49
2023/07/14 02:53:10;;;;;;;17.70;11.50;;;14.60;99.90;;;;;;5050645;28;20068;-49
2023/07/14 02:55:36;;;;;;;11.13;9.70;;;14.60;99.90;;;;;;5050145;28;20079;-51
2023/07/14 02:58:04;;;;;;;16.45;10.60;;;14.50;99.90;;;;;;5051637;28;20072;-49
2023/07/14 03:00:29;;;;;;;15.63;11.32;;;14.50;99.90;;;;;;5051436;28;20052;-49
2023/07/14 03:02:56;;;;;;;13.13;11.63;;;14.50;99.90;;;;;;5051327;28;20037;-49
2023/07/14 03:05:21;;;;;;;13.27;10.88;;;14.60;99.90;;;;;;5050265;28;20486;-49
2023/07/14 03:07:47;;;;;;;14.48;11.07;;;14.50;99.90;;;;;;5051544;28;20098;-49
2023/07/14 03:10:13;;;;;;;16.90;10.77;;;14.60;99.90;;;;;;5051460;28;20116;-49
2023/07/14 03:12:38;;;;;;;17.30;11.77;;;14.60;99.90;;;;;;5051108;28;20041;-49
2023/07/14 03:15:05;;;;;;;12.43;8.35;;;14.50;99.90;;;;;;5050788;28;20040;-52
2023/07/14 03:17:31;;;;;;;11.77;7.55;;;14.40;99.90;;;;;;5050641;28;20033;-49
2023/07/14 03:19:56;;;;;;;10.05;7.00;;;14.20;99.90;;;;;;5050842;28;20163;-52
2023/07/14 03:22:23;;;;;;;10.98;7.25;;;14.00;99.90;;;;;;5051291;28;20072;-50
2023/07/14 03:24:49;;;;;;;12.10;10.43;;;13.90;99.90;;;;;;5050997;28;20797;-51
2023/07/14 03:27:15;;;;;;;12.98;9.73;;;13.80;99.90;;;;;;5050951;28;20123;-49
2023/07/14 03:29:40;;;;;;;21.60;13.70;;;13.80;99.90;;;;;;5050781;28;20508;-52
2023/07/14 03:32:10;;;;;;;15.98;13.15;;;13.90;99.90;;;;;;5050696;28;20188;-49
2023/07/14 03:34:36;;;;;;;18.35;13.80;;;14.00;99.90;;;;;;5050884;28;20056;-49
2023/07/14 03:37:01;;;;;;;15.55;13.48;;;14.00;99.90;;;;;;5050531;28;20032;-49
2023/07/14 03:39:28;;;;;;;17.02;14.15;;;14.10;99.90;;;;;;5051191;28;20086;-49
2023/07/14 03:41:56;;;;;;;20.63;14.75;;;14.20;99.90;;;;;;5050506;28;20037;-49
2023/07/14 03:44:22;;;;;;;16.10;13.98;;;14.20;99.90;;;;;;5050465;28;20133;-49
2023/07/14 03:46:48;;;;;;;18.60;14.15;;;14.30;99.90;;;;;;5050212;28;20152;-53
2023/07/14 03:49:14;;;;;;;19.05;14.82;;;14.30;99.90;;;;;;5050931;28;20095;-51
2023/07/14 03:51:40;;;;;;;13.15;10.98;;;14.30;99.90;;;;;;5050690;28;20545;-51
2023/07/14 03:54:06;;;;;;;;;;;14.30;99.90;;;;;;5050459;28;20540;-53
2023/07/14 03:56:32;;;;;;;13.52;11.32;;;14.30;99.90;;;;;;5050002;28;19917;-49
2023/07/14 03:58:58;;;;;;;17.77;13.25;;;14.20;99.90;;;;;;5050139;28;20037;-50
2023/07/14 04:01:25;;;;;;;15.82;13.25;;;14.20;99.90;;;;;;5049817;28;20619;-49
2023/07/14 04:03:51;;;;;;;18.92;14.25;;;14.20;99.90;;;;;;5049967;28;20052;-51
2023/07/14 04:06:16;;;;;;;18.38;15.25;;;14.20;99.90;;;;;;5049826;28;20033;-48
2023/07/14 04:08:43;;;;;;;20.95;15.98;;;14.20;99.90;;;;;;5050553;28;20071;-49
2023/07/14 04:11:11;;;;;;;19.25;15.80;;;14.20;99.90;;;;;;5049884;28;20041;-51
2023/07/14 04:13:37;;;;;;;18.05;15.07;;;14.20;99.90;;;;;;5050086;28;20049;-50
2023/07/14 04:16:04;;;;;;;19.60;14.80;;;14.20;99.90;;;;;;5050036;28;20063;-49
2023/07/14 04:18:31;;;;;;;24.33;16.42;;;14.20;99.90;;;;;;5050005;28;20037;-49
2023/07/14 04:21:09;;;;;;;18.17;15.82;;;14.30;99.90;;;;;;5050093;28;20394;-49
2023/07/14 04:23:35;;;;;;;17.35;14.70;;;14.30;99.90;;;;;;5049562;28;20036;-48
2023/07/14 04:26:01;;;;;;;17.58;14.55;;;14.30;99.90;;;;;;5049547;28;20077;-49
2023/07/14 04:28:28;;;;;;;21.17;16.80;;;14.40;99.90;;;;;;5049696;28;20048;-51
2023/07/14 04:30:58;;;;;;;18.02;16.10;;;14.40;99.90;;;;;;5049970;28;20049;-52
2023/07/14 04:33:24;;;;;;;20.73;15.65;;;14.50;99.90;;;;;;5050072;28;20462;-49
2023/07/14 04:35:54;;;;;;;20.77;16.27;;;14.50;99.90;;;;;;5049700;28;20051;-49
2023/07/14 04:38:22;;;;;;;22.13;16.65;;;14.60;99.90;;;;;;5050359;28;20081;-48
2023/07/14 04:40:48;;;;;;;22.23;17.63;;;14.70;99.90;;;;;;5049221;28;20083;-52
2023/07/14 04:43:14;;;;;;;21.05;17.15;;;14.70;99.90;;;;;;5050077;28;20041;-51
2023/07/14 04:45:41;;;;;;;20.80;16.88;;;14.80;99.90;;;;;;5049481;28;20033;-48
2023/07/14 04:48:08;;;;;;;22.92;17.55;;;14.90;99.90;;;;;;5049795;28;20052;-50
2023/07/14 04:50:35;;;;;;;23.63;18.27;;;14.90;99.90;;;;;;5050015;28;20062;-49
2023/07/14 04:53:04;;;;;;;23.45;17.85;;;15.00;99.90;;;;;;5049550;28;20052;-49
2023/07/14 04:55:29;;;;;;;20.38;17.75;;;15.10;99.90;;;;;;5049092;28;20079;-50
2023/07/14 04:57:55;;;;;;;20.88;17.52;;;15.20;99.90;;;;;;5049695;28;20079;-49
2023/07/14 05:00:20;;;;;;;21.90;17.48;;;15.30;99.90;;;;;;5049728;28;20040;-49
2023/07/14 05:02:47;;;;;;;25.65;16.92;;;15.30;99.90;;;;;;5049618;28;20041;-49
2023/07/14 05:05:17;;;;;;;;;;;15.40;99.90;;;;;;5050095;28;20159;-49
2023/07/14 05:07:43;;;;;;;21.90;17.40;;;15.40;99.90;;;;;;5055085;28;19924;-49
2023/07/14 05:10:09;;;;;;;22.15;17.63;;;15.40;99.90;;;;;;5049574;28;20052;-48
2023/07/14 05:12:34;;;;;;;;;;;15.40;99.90;;;;;;5050204;28;20040;-49
2023/07/14 05:15:05;;;;;;;17.83;15.93;;;15.50;99.90;;;;;;5049375;28;20052;-51
2023/07/14 05:17:34;;;;;;;25.00;17.35;;;15.50;99.90;;;;;;5049087;28;20040;-49
2023/07/14 05:20:00;;;;;;;21.85;18.58;;;15.50;99.90;;;;;;5048864;28;20033;-49
2023/07/14 05:22:25;;;;;;;22.05;16.92;;;15.50;99.90;;;;;;5049347;28;20041;-48
2023/07/14 05:24:51;;;;;;;22.25;18.15;;;15.60;99.90;;;;;;5049321;28;20037;-49
2023/07/14 05:27:17;;;;;;;22.48;17.00;;;15.60;99.90;;;;;;5049258;28;20491;-52
2023/07/14 05:29:45;;;;;;;26.20;17.95;;;15.60;99.90;;;;;;5049416;28;20112;-48
2023/07/14 05:32:11;;;;;;;17.75;15.95;;;15.60;99.90;;;;;;5049280;28;20041;-52
2023/07/14 05:34:37;;;;;;;18.88;15.65;;;15.60;99.90;;;;;;5050594;28;20512;-49
2023/07/14 05:37:02;;;;;;;24.35;17.10;;;15.60;99.90;;;;;;5052413;28;20090;-51
2023/07/14 05:39:28;;;;;;;23.02;16.55;;;15.60;99.90;;;;;;5053096;28;20043;-48
2023/07/14 05:41:58;;;;;;;19.15;16.38;;;15.70;99.90;;;;;;5053102;28;20121;-49
2023/07/14 05:44:24;;;;;;;20.48;15.13;;;15.70;99.90;;;;;;5052803;28;20041;-52
2023/07/14 05:46:50;;;;;;;;;;;15.80;99.90;;;;;;5052920;28;20082;-53
2023/07/14 05:49:16;;;;;;;20.33;16.13;;;15.80;99.90;;;;;;5047859;28;19924;-49
2023/07/14 05:51:42;;;;;;;19.55;15.30;;;15.90;99.90;;;;;;5051574;28;20037;-49
2023/07/14 05:54:08;;;;;;;;;;;15.90;99.90;;;;;;5052945;28;20033;-49
2023/07/14 05:56:34;;;;;;;21.33;15.30;;;16.00;99.90;;;;;;5053019;28;19923;-49
2023/07/14 05:58:59;;;;;;;;;;;16.00;99.90;;;;;;5052470;28;20501;-49
2023/07/14 06:01:25;;;;;;;17.98;13.43;;;16.10;99.90;;;;;;5052152;28;19928;-49
2023/07/14 06:03:51;;;;;;;18.45;14.48;;;16.10;99.90;;;;;;5051791;28;20037;-52
2023/07/14 06:06:16;;;;;;;22.17;16.90;;;16.20;99.90;;;;;;5046185;28;20566;-48
2023/07/14 06:08:42;;;;;;;17.92;12.23;;;16.20;99.90;;;;;;5050919;28;20037;-50
2023/07/14 06:11:08;;;;;;;15.27;12.45;;;16.20;99.90;;;;;;5052183;28;20452;-48
2023/07/14 06:13:33;;;;;;;17.10;12.60;;;16.30;99.90;;;;;;5052223;28;20402;-48
2023/07/14 06:16:00;;;;;;;15.18;13.07;;;16.30;99.90;;;;;;5052142;28;20037;-52
2023/07/14 06:18:25;;;;;;;20.20;12.63;;;16.40;99.90;;;;;;5049257;28;20035;-49
2023/07/14 06:20:51;;;;;;;19.08;13.30;;;16.40;99.90;;;;;;5051976;28;20410;-50
2023/07/14 06:23:17;;;;;;;14.48;12.88;;;16.50;99.90;;;;;;5052303;28;20033;-49
2023/07/14 06:25:43;;;;;;;13.55;12.15;;;16.60;99.90;;;;;;5052262;28;20036;-49
2023/07/14 06:28:09;;;;;;;14.18;12.25;;;16.70;99.90;;;;;;5052030;28;20033;-50
2023/07/14 06:30:35;;;;;;;19.77;13.05;;;16.80;99.90;;;;;;5051091;28;20414;-49
2023/07/14 06:33:01;;;;;;;;;;;16.80;99.90;;;;;;5052153;28;20114;-49
2023/07/14 06:35:27;;;;;;;14.10;12.50;;;16.90;99.90;;;;;;5050418;28;19979;-49
2023/07/14 06:37:55;;;;;;;16.85;11.82;;;17.00;99.90;;;;;;5051916;28;20029;-50
2023/07/14 06:40:21;;;;;;;18.83;11.20;;;17.10;99.90;;;;;;5051421;28;20048;-49
2023/07/14 06:42:46;;;;;;;12.90;10.35;;;17.20;99.90;;;;;;5050816;28;20033;-49
2023/07/14 06:45:12;;;;;;;16.50;11.70;;;17.30;99.90;;;;;;5050832;28;20406;-48
2023/07/14 06:47:38;;;;;;;12.13;9.07;;;17.40;99.90;;;;;;5051226;28;20033;-49
2023/07/14 06:50:04;;;;;;;13.32;8.98;;;17.50;99.90;;;;;;5051190;28;20033;-49
2023/07/14 06:52:30;;;;;;;;;;;17.50;99.90;;;;;;5052610;28;20077;-49
2023/07/14 06:54:57;;;;;;;12.18;9.90;;;17.60;99.90;;;;;;5050689;28;19967;-50
2023/07/14 06:57:23;;;;;;;13.70;9.90;;;17.70;99.90;;;;;;5050862;28;20045;-48
2023/07/14 06:59:48;;;;;;;12.10;10.27;;;17.80;99.90;;;;;;5047168;28;21454;-49
2023/07/14 07:02:14;;;;;;;15.05;8.55;;;18.00;99.90;;;;;;5039188;28;20184;-51
2023/07/14 07:04:41;;;;;;;12.10;8.75;;;18.10;99.90;;;;;;5040820;28;20052;-49
2023/07/14 07:07:06;;;;;;;;;;;18.30;99.90;;;;;;5044260;28;20426;-48
2023/07/14 07:09:32;;;;;;;12.93;8.48;;;18.40;99.90;;;;;;5048864;28;19916;-52
2023/07/14 07:11:58;;;;;;;11.90;8.52;;;18.50;99.90;;;;;;5062966;28;20509;-54
2023/07/14 07:14:23;;;;;;;10.07;8.30;;;18.60;99.90;;;;;;5051094;28;20037;-49
2023/07/14 07:16:49;;;;;;;13.38;8.77;;;18.70;99.90;;;;;;5051551;28;20040;-49
2023/07/14 07:19:16;;;;;;;9.80;8.00;;;18.70;99.90;;;;;;5049263;28;20573;-49
2023/07/14 07:21:41;;;;;;;11.40;8.05;;;18.80;99.90;;;;;;5039602;28;20045;-49
2023/07/14 07:24:08;;;;;;;10.43;8.73;;;18.90;99.90;;;;;;5050393;28;20040;-50
2023/07/14 07:26:34;;;;;;;15.27;8.40;;;19.00;99.90;;;;;;5051055;28;20044;-49
2023/07/14 07:29:00;;;;;;;12.63;8.07;;;19.10;99.90;;;;;;5050243;28;20390;-50
2023/07/14 07:31:25;;;;;;;;;;;19.20;99.90;;;;;;5040729;28;20498;-51
2023/07/14 07:33:51;;;;;;;10.00;7.38;;;19.30;99.90;;;;;;5046899;28;20011;-52
2023/07/14 07:36:17;;;;;;;10.45;7.28;;;19.30;99.90;;;;;;5046232;28;20048;-50
2023/07/14 07:38:47;;;;;;;;;;;19.40;99.90;;;;;;5048571;28;20033;-49
2023/07/14 07:41:19;;;;;;;11.65;7.70;;;19.40;99.90;;;;;;5042336;28;19921;-49
2023/07/14 07:43:44;;;;;;;12.52;7.72;;;19.50;99.90;;;;;;5037242;28;20548;-52
2023/07/14 07:46:11;;;;;;;11.13;6.10;;;19.60;99.90;;;;;;5044179;28;20033;-50
2023/07/14 07:48:37;;;;;;;12.98;6.68;;;19.60;99.90;;;;;;5036559;28;20488;-52
2023/07/14 07:51:06;;;;;;;8.65;6.25;;;19.80;99.90;;;;;;5038732;28;20060;-50
2023/07/14 07:53:32;;;;;;;11.10;7.13;;;19.80;99.90;;;;;;5037446;28;20083;-49
2023/07/14 07:56:00;;;;;;;6.57;5.47;;;19.90;99.90;;;;;;5050414;28;20083;-55
2023/07/14 07:58:25;;;;;;;9.07;6.28;;;19.90;99.90;;;;;;5044331;28;20036;-49
2023/07/14 08:00:58;;;;;;;7.80;6.10;;;20.00;99.90;;;;;;5049582;28;20445;-49
2023/07/14 08:03:23;;;;;;;5.45;3.83;;;20.00;99.90;;;;;;5041560;28;20049;-50
2023/07/14 08:05:49;;;;;;;7.07;4.53;;;20.10;99.90;;;;;;5049772;28;20029;-51
2023/07/14 08:08:15;;;;;;;11.25;5.55;;;20.10;99.90;;;;;;5045822;28;20045;-51
2023/07/14 08:10:45;;;;;;;;;;;20.30;99.90;;;;;;5044511;28;20468;-50
2023/07/14 08:13:13;;;;;;;8.30;4.00;;;20.30;99.90;;;;;;5045200;28;20487;-54
2023/07/14 08:15:39;;;;;;;6.28;4.78;;;20.30;99.90;;;;;;5044912;28;20041;-49
2023/07/14 08:18:07;;;;;;;6.43;3.40;;;20.30;99.90;;;;;;5036586;28;20056;-49
2023/07/14 08:20:34;;;;;;;7.63;4.28;;;20.30;99.90;;;;;;5041441;28;20052;-49
2023/07/14 08:23:10;;;;;;;5.88;3.72;;;20.40;99.90;;;;;;5044104;28;20037;-53
2023/07/14 08:25:37;;;;;;;;;;;20.40;99.90;;;;;;5043778;28;20458;-51
2023/07/14 08:28:04;;;;;;;10.43;4.20;;;20.30;99.90;;;;;;5061052;28;19963;-49
2023/07/14 08:30:30;;;;;;;7.85;4.47;;;20.20;99.90;;;;;;5042489;28;20074;-50
2023/07/14 08:32:56;;;;;;;5.72;3.58;;;20.30;99.90;;;;;;5039089;28;20030;-54
2023/07/14 08:35:22;;;;;;;6.45;2.92;;;20.30;99.90;;;;;;5042521;28;20032;-51
2023/07/14 08:37:48;;;;;;;8.07;2.85;;;20.20;99.90;;;;;;5042983;28;20083;-49
2023/07/14 08:40:20;;;;;;;4.60;2.10;;;20.20;99.90;;;;;;5042169;28;20707;-50
2023/07/14 08:43:04;;;;;;;4.78;2.42;;;20.20;99.90;;;;;;5049571;28;20506;-49
2023/07/14 08:45:58;;;;;;;5.00;2.95;;;20.30;99.90;;;;;;5049720;28;20482;-49
2023/07/14 08:48:40;;;;;;;6.20;2.55;;;20.20;99.90;;;;;;5028245;28;20053;-49
2023/07/14 08:51:24;;;;;;;5.78;2.95;;;20.30;99.90;;;;;;5046596;28;20044;-49
2023/07/14 08:54:02;;;;;;;2.80;1.58;;;20.20;99.90;;;;;;5046277;28;20052;-52
2023/07/14 08:56:33;;;;;;;5.30;1.55;;;20.10;99.90;;;;;;5047649;28;20116;-50
2023/07/14 08:58:59;;;;;;;4.30;1.60;;;19.90;99.90;;;;;;5047512;28;20064;-49
2023/07/14 09:01:37;;;;;;;3.92;2.30;;;19.90;99.90;;;;;;5039778;28;20051;-52
2023/07/14 09:04:11;;;;;;;6.25;2.25;;;19.80;99.90;;;;;;5039826;28;20583;-52
2023/07/14 09:06:38;;;;;;;6.82;2.05;;;19.90;99.90;;;;;;5044621;28;20107;-49
2023/07/14 09:09:19;;;;;;;5.55;2.13;;;19.90;99.90;;;;;;5049123;28;20037;-51
2023/07/14 09:12:03;;;;;;;4.53;1.90;;;20.00;99.90;;;;;;5043522;28;20402;-49
2023/07/14 09:14:54;;;;;;;7.75;2.33;;;20.10;99.90;;;;;;5052034;28;20115;-49
2023/07/14 09:17:44;;;;;;;5.18;2.28;;;20.30;99.90;;;;;;5049323;28;20046;-54
2023/07/14 09:20:32;;;;;;;8.98;2.28;;;20.40;99.90;;;;;;5051260;28;20045;-55
2023/07/14 09:23:16;;;;;;;3.90;2.33;;;20.50;99.90;;;;;;5052090;28;20121;-54
2023/07/14 09:25:41;;;;;;;4.72;2.63;;;20.40;99.90;;;;;;5053126;28;20045;-50
2023/07/14 09:28:25;;;;;;;4.22;2.20;;;20.30;99.90;;;;;;5053422;28;20502;-52
2023/07/14 09:30:52;;;;;;;5.57;2.13;;;20.30;99.90;;;;;;5053357;28;20033;-50
2023/07/14 09:33:20;;;;;;;3.22;1.83;;;20.20;99.90;;;;;;5053281;28;20387;-51
2023/07/14 09:35:49;;;;;;;5.47;1.92;;;20.30;99.90;;;;;;5053192;28;20041;-50
2023/07/14 09:38:22;;;;;;;2.53;1.90;;;20.30;99.90;;;;;;5053068;28;20052;-51
2023/07/14 09:40:55;;;;;;;4.38;1.85;;;20.40;99.90;;;;;;5052700;28;20072;-50
2023/07/14 09:43:20;;;;;;;3.45;1.88;;;20.50;99.90;;;;;;5052535;28;20124;-53
2023/07/14 09:45:46;;;;;;;1.35;1.13;;;20.60;99.90;;;;;;5052979;28;20108;-51
2023/07/14 09:48:18;;;;;;;4.00;1.13;;;20.70;99.90;;;;;;5052674;28;20032;-52
2023/07/14 09:50:55;;;;;;;3.55;1.55;;;20.70;99.90;;;;;;5051956;28;20036;-50
2023/07/14 09:53:20;;;;;;;2.88;1.42;;;20.80;99.90;;;;;;5051885;28;20387;-52
2023/07/14 09:55:48;;;;;;;;;;;20.90;99.90;;;;;;5048239;28;20083;-50
2023/07/14 09:58:15;;;;;;;3.97;1.90;;;21.20;99.90;;;;;;5052283;28;19917;-51
2023/07/14 10:00:42;;;;;;;4.50;1.85;;;21.30;99.90;;;;;;5052726;28;20129;-50
2023/07/14 10:03:15;;;;;;;2.75;1.55;;;21.50;99.90;;;;;;5042035;28;20037;-50
2023/07/14 10:05:51;;;;;;;2.38;1.42;;;21.60;99.90;;;;;;5052495;28;20041;-52
2023/07/14 10:08:48;;;;;;;2.58;1.65;;;21.70;99.80;;;;;;5052509;28;20116;-53
2023/07/14 10:11:17;;;;;;;7.05;1.55;;;21.80;99.90;;;;;;5044385;28;20057;-50
2023/07/14 10:13:52;;;;;;;4.93;1.42;;;21.90;99.90;;;;;;5052146;28;20041;-50
2023/07/14 10:16:20;;;;;;;3.17;1.83;;;21.90;99.00;;;;;;5052094;28;20091;-50
2023/07/14 10:18:53;;;;;;;4.85;1.10;;;21.90;99.40;;;;;;5052540;28;20041;-51
2023/07/14 10:21:25;;;;;;;3.67;1.42;;;21.90;98.60;;;;;;5051954;28;20037;-50
2023/07/14 10:23:59;;;;;;;1.42;1.33;;;21.80;97.90;;;;;;5052387;28;20040;-53
2023/07/14 10:26:28;;;;;;;3.22;1.42;;;21.70;98.80;;;;;;5052215;28;20083;-50
2023/07/14 10:28:54;;;;;;;5.53;1.45;;;21.80;99.20;;;;;;5051924;28;20462;-51
2023/07/14 10:31:27;;;;;;;;;;;21.70;98.60;;;;;;5052770;28;20075;-51
2023/07/14 10:34:38;;;;;;;5.03;1.90;;;21.60;98.80;;;;;;5051817;28;20015;-52
2023/07/14 10:37:14;;;;;;;3.67;1.45;;;21.50;98.80;;;;;;5051474;28;20041;-52
2023/07/14 10:39:45;;;;;;;4.68;2.13;;;21.40;98.70;;;;;;5052373;28;20210;-51
2023/07/14 10:42:18;;;;;;;3.63;1.20;;;21.40;98.80;;;;;;5051924;28;20083;-55
2023/07/14 10:44:45;;;;;;;4.10;1.65;;;21.50;98.30;;;;;;5051664;28;20041;-52
2023/07/14 10:47:19;;;;;;;5.38;1.88;;;21.40;98.70;;;;;;5051749;28;20044;-50
2023/07/14 10:49:54;;;;;;;2.95;1.73;;;21.40;98.50;;;;;;5052307;28;20045;-52
2023/07/14 10:52:29;;;;;;;2.40;1.88;;;21.40;98.60;;;;;;5051684;28;20087;-50
2023/07/14 10:55:29;;;;;;;2.92;1.45;;;21.50;99.10;;;;;;5051698;28;20052;-52
2023/07/14 10:58:05;;;;;;;3.67;1.35;;;21.50;98.70;;;;;;5042651;28;20045;-50
2023/07/14 11:00:51;;;;;;;3.60;1.50;;;21.50;98.20;;;;;;5051850;28;20051;-51
2023/07/14 11:03:32;;;;;;;3.17;1.48;;;21.50;98.20;;;;;;5050927;28;20072;-54
2023/07/14 11:06:18;;;;;;;4.47;1.50;;;21.50;98.30;;;;;;5051019;28;20071;-52
2023/07/14 11:08:49;;;;;;;4.90;1.73;;;21.40;98.60;;;;;;5044930;28;20613;-53
2023/07/14 11:11:24;;;;;;;3.20;1.65;;;21.40;98.10;;;;;;5038911;28;20049;-50
2023/07/14 11:14:15;;;;;;;3.28;1.63;;;21.40;98.20;;;;;;5047215;28;20040;-51
2023/07/14 11:16:49;;;;;;;6.22;2.00;;;21.30;98.20;;;;;;5043150;28;20032;-51
2023/07/14 11:19:31;;;;;;;3.53;1.83;;;21.40;98.70;;;;;;5050858;28;20450;-50
2023/07/14 11:22:04;;;;;;;3.50;0.98;;;21.50;98.70;;;;;;5048247;28;20048;-50
2023/07/14 11:24:50;;;;;;;3.53;1.42;;;21.70;98.40;;;;;;5050640;28;20115;-50
2023/07/14 11:27:31;;;;;;;5.93;1.23;;;21.90;98.00;;;;;;5050990;28;20130;-50
2023/07/14 11:30:06;;;;;;;4.38;1.50;;;21.90;97.80;;;;;;5050998;28;20051;-53
2023/07/14 11:32:52;;;;;;;6.15;1.60;;;22.10;98.30;;;;;;5051022;28;20040;-52
2023/07/14 11:35:56;;;;;;;2.95;1.60;;;22.20;97.40;;;;;;5041550;28;20513;-52
2023/07/14 11:38:40;;;;;;;4.50;1.20;;;22.30;97.60;;;;;;5047482;28;20135;-53
2023/07/14 11:41:06;;;;;;;1.42;1.20;;;22.40;97.90;;;;;;5051408;28;20129;-51
2023/07/14 11:43:32;;;;;;;;;;;22.50;97.60;;;;;;5049618;28;20572;-50
2023/07/14 11:46:05;;;;;;;3.50;1.40;;;22.50;97.20;;;;;;5050431;28;19920;-51
2023/07/14 11:48:40;;;;;;;4.22;0.95;;;22.50;97.50;;;;;;5050733;28;20048;-52
2023/07/14 11:51:12;;;;;;;2.28;1.50;;;22.60;96.70;;;;;;5051047;28;20045;-51
2023/07/14 11:53:41;;;;;;;4.30;1.40;;;22.70;97.50;;;;;;5050354;28;20069;-51
2023/07/14 11:56:21;;;;;;;4.47;1.27;;;22.70;96.40;;;;;;5049933;28;20564;-51
2023/07/14 11:58:51;;;;;;;4.65;1.80;;;22.60;96.30;;;;;;5050203;28;20037;-50
2023/07/14 12:01:24;;;;;;;2.15;1.10;;;22.60;96.20;;;;;;5050471;28;20045;-51
2023/07/14 12:03:56;;;;;;;2.20;1.23;;;22.50;96.30;;;;;;5050072;28;20044;-53
2023/07/14 12:06:42;;;;;;;4.15;1.83;;;22.50;96.80;;;;;;5050141;28;20037;-51
2023/07/14 12:09:18;;;;;;;1.80;1.15;;;22.30;96.40;;;;;;5050536;28;20417;-53
2023/07/14 12:11:58;;;;;;;6.07;1.80;;;22.30;96.90;;;;;;5050771;28;20032;-51
2023/07/14 12:14:35;;;;;;;3.92;1.67;;;22.40;96.00;;;;;;5049842;28;20044;-51
2023/07/14 12:17:02;;;;;;;4.63;1.70;;;22.50;96.60;;;;;;5049889;28;20090;-54
2023/07/14 12:19:48;;;;;;;2.20;1.38;;;22.50;96.50;;;;;;5050197;28;20037;-56
2023/07/14 12:22:37;;;;;;;2.85;1.48;;;22.50;96.30;;;;;;5049726;28;20056;-54
2023/07/14 12:25:16;;;;;;;2.15;1.40;;;22.40;96.30;;;;;;5050050;28;20069;-55
2023/07/14 12:27:53;;;;;;;4.63;1.25;;;22.40;96.50;;;;;;5065617;28;20335;-54
2023/07/14 12:30:25;;;;;;;4.57;2.38;;;22.40;96.10;;;;;;5050112;28;20040;-57
2023/07/14 12:33:00;;;;;;;2.97;1.30;;;22.40;96.40;;;;;;5050005;28;20029;-55
2023/07/14 12:35:27;;;;;;;2.13;1.00;;;22.40;96.60;;;;;;5049298;28;20031;-56
2023/07/14 12:37:53;;;;;;;2.92;1.23;;;22.50;95.80;;;;;;5049316;28;20108;-51
2023/07/14 12:40:19;;;;;;;;;;;22.50;96.00;;;;;;5044394;28;20036;-56
2023/07/14 12:42:46;;;;;;;3.22;1.50;;;22.40;95.50;;;;;;5038076;28;19925;-55
2023/07/14 12:45:13;;;;;;;4.78;1.38;;;22.30;96.20;;;;;;5038535;28;20498;-56
2023/07/14 12:47:46;;;;;;;3.67;1.58;;;22.10;96.50;;;;;;5039592;28;20171;-51
2023/07/14 12:50:20;;;;;;;2.97;1.65;;;22.10;96.60;;;;;;5039450;28;20405;-57
2023/07/14 12:52:48;;;;;;;4.18;1.77;;;22.10;96.50;;;;;;5036073;28;20049;-51
2023/07/14 12:55:16;;;;;;;2.70;1.52;;;22.10;97.10;;;;;;5037319;28;20049;-55
2023/07/14 12:57:42;;;;;;;8.43;1.95;;;22.00;96.70;;;;;;5037752;28;20144;-55
2023/07/14 13:00:24;;;;;;;;;;;22.10;96.90;;;;;;5037843;28;20033;-55